createdAt,value
2023-04-09T00:00:18.094Z,59.85
2023-04-09T00:02:45.452Z,57.55
2023-04-09T00:05:12.757Z,58.83
2023-04-09T00:07:40.098Z,65.20
2023-04-09T00:10:07.602Z,63.47
2023-04-09T00:12:34.756Z,62.72
2023-04-09T00:15:02.029Z,54.70
2023-04-09T00:17:29.213Z,56.90
2023-04-09T00:19:56.417Z,57.30
2023-04-09T00:22:23.604Z,59.78
2023-04-09T00:24:50.759Z,62.15
2023-04-09T00:27:17.910Z,56.85
2023-04-09T00:29:45.345Z,61.03
2023-04-09T00:32:12.552Z,57.03
2023-04-09T00:34:39.832Z,54.47
2023-04-09T00:37:07.066Z,55.22
2023-04-09T00:39:34.214Z,58.08
2023-04-09T00:42:04.910Z,58.92
2023-04-09T00:44:34.814Z,57.42
2023-04-09T00:47:01.944Z,61.03
2023-04-09T00:49:29.462Z,52.20
2023-04-09T00:51:56.730Z,57.38
2023-04-09T00:54:23.897Z,54.47
2023-04-09T00:56:51.535Z,60.47
2023-04-09T00:59:19.037Z,59.90
2023-04-09T01:01:46.258Z,62.67
2023-04-09T01:04:13.424Z,67.55
2023-04-09T01:06:46.381Z,53.30
2023-04-09T01:09:19.400Z,55.55
2023-04-09T01:11:59.546Z,54.60
2023-04-09T01:14:38.503Z,53.00
2023-04-09T01:17:06.969Z,49.45
2023-04-09T01:19:49.675Z,51.47
2023-04-09T01:22:29.117Z,58.50
2023-04-09T01:25:01.229Z,50.70
2023-04-09T01:27:33.960Z,51.70
2023-04-09T01:30:05.342Z,53.40
2023-04-09T01:32:33.625Z,51.78
2023-04-09T01:35:01.090Z,52.47
2023-04-09T01:37:28.596Z,48.88
2023-04-09T01:39:55.993Z,46.63
2023-04-09T01:42:23.546Z,55.00
2023-04-09T01:44:51.194Z,53.17
2023-04-09T01:47:18.376Z,49.67
2023-04-09T01:49:45.608Z,57.50
2023-04-09T01:52:13.106Z,50.97
2023-04-09T01:54:40.398Z,49.08
2023-04-09T01:57:07.571Z,50.97
2023-04-09T01:59:34.733Z,52.50
2023-04-09T02:02:08.678Z,51.30
2023-04-09T02:04:44.710Z,46.03
2023-04-09T02:07:24.432Z,51.42
2023-04-09T02:09:52.556Z,48.63
2023-04-09T02:12:20.121Z,50.30
2023-04-09T02:14:47.619Z,51.20
2023-04-09T02:17:14.967Z,56.80
2023-04-09T02:19:45.312Z,67.68
2023-04-09T02:22:12.871Z,69.75
2023-04-09T02:24:43.286Z,64.43
2023-04-09T02:27:10.634Z,62.75
2023-04-09T02:29:37.899Z,64.05
2023-04-09T02:32:05.242Z,57.50
2023-04-09T02:34:32.524Z,58.97
2023-04-09T02:36:59.773Z,58.88
2023-04-09T02:39:27.306Z,65.07
2023-04-09T02:41:54.521Z,57.95
2023-04-09T02:44:21.666Z,73.20
2023-04-09T02:46:49.562Z,64.40
2023-04-09T02:49:16.866Z,73.93
2023-04-09T02:51:44.007Z,63.05
2023-04-09T02:54:11.185Z,70.70
2023-04-09T02:56:38.427Z,67.93
2023-04-09T02:59:05.790Z,67.45
2023-04-09T03:01:33.020Z,75.75
2023-04-09T03:04:01.069Z,70.70
2023-04-09T03:06:28.510Z,70.78
2023-04-09T03:08:55.710Z,67.63
2023-04-09T03:11:22.906Z,60.22
2023-04-09T03:13:50.289Z,56.72
2023-04-09T03:16:17.739Z,67.53
2023-04-09T03:18:44.967Z,56.17
2023-04-09T03:21:14.395Z,59.33
2023-04-09T03:23:42.075Z,52.47
2023-04-09T03:26:09.319Z,49.75
2023-04-09T03:28:36.574Z,52.88
2023-04-09T03:31:03.777Z,55.63
2023-04-09T03:33:31.031Z,52.47
2023-04-09T03:35:58.317Z,50.70
2023-04-09T03:38:25.536Z,50.00
2023-04-09T03:40:52.754Z,52.97
2023-04-09T03:43:19.961Z,52.80
2023-04-09T03:45:47.139Z,47.80
2023-04-09T03:48:14.298Z,50.55
2023-04-09T03:50:42.004Z,56.92
2023-04-09T03:53:09.165Z,49.78
2023-04-09T03:55:36.461Z,49.90
2023-04-09T03:58:03.610Z,52.25
2023-04-09T04:00:30.828Z,50.38
2023-04-09T04:02:58.196Z,55.53
2023-04-09T04:05:26.331Z,51.80
2023-04-09T04:07:53.774Z,48.65
2023-04-09T04:10:21.033Z,48.72
2023-04-09T04:12:48.275Z,54.85
2023-04-09T04:15:15.616Z,55.08
2023-04-09T04:17:42.956Z,49.13
2023-04-09T04:20:10.456Z,48.58
2023-04-09T04:22:37.726Z,50.33
2023-04-09T04:25:05.413Z,51.50
2023-04-09T04:27:32.646Z,44.45
2023-04-09T04:30:02.115Z,49.13
2023-04-09T04:32:29.453Z,46.15
2023-04-09T04:34:56.701Z,48.55
2023-04-09T04:37:24.085Z,44.20
2023-04-09T04:39:51.212Z,44.13
2023-04-09T04:42:18.974Z,52.70
2023-04-09T04:44:46.243Z,52.88
2023-04-09T04:47:13.409Z,48.20
2023-04-09T04:49:40.624Z,46.55
2023-04-09T04:52:07.933Z,46.42
2023-04-09T04:54:35.337Z,47.40
2023-04-09T04:57:02.595Z,45.15
2023-04-09T04:59:30.095Z,52.22
2023-04-09T05:01:57.390Z,43.63
2023-04-09T05:04:24.691Z,43.85
2023-04-09T05:06:51.865Z,47.53
2023-04-09T05:09:21.876Z,53.75
2023-04-09T05:11:49.621Z,51.53
2023-04-09T05:14:17.016Z,60.85
2023-04-09T05:16:44.294Z,77.20
2023-04-09T05:19:11.629Z,83.72
2023-04-09T05:21:38.797Z,75.40
2023-04-09T05:24:06.333Z,77.13
2023-04-09T05:26:33.481Z,85.68
2023-04-09T05:29:00.627Z,86.22
2023-04-09T05:31:27.777Z,80.50
2023-04-09T05:33:54.985Z,75.13
2023-04-09T05:36:22.135Z,68.32
2023-04-09T05:38:49.946Z,82.95
2023-04-09T05:41:17.143Z,83.43
2023-04-09T05:43:44.268Z,77.57
2023-04-09T05:46:11.681Z,81.63
2023-04-09T05:48:38.994Z,71.60
2023-04-09T05:51:06.183Z,69.15
2023-04-09T05:53:33.322Z,70.03
2023-04-09T05:56:01.011Z,55.80
2023-04-09T05:58:30.041Z,48.22
2023-04-09T06:00:57.239Z,39.08
2023-04-09T06:03:24.465Z,36.75
2023-04-09T06:05:52.110Z,32.55
2023-04-09T06:08:19.506Z,28.75
2023-04-09T06:10:46.715Z,31.27
2023-04-09T06:13:13.885Z,27.45
2023-04-09T06:15:41.165Z,27.38
2023-04-09T06:18:08.433Z,26.25
2023-04-09T06:20:35.916Z,23.98
2023-04-09T06:23:03.111Z,23.88
2023-04-09T06:25:30.287Z,23.50
2023-04-09T06:27:57.594Z,22.10
2023-04-09T06:30:24.879Z,21.38
2023-04-09T06:32:55.118Z,24.48
2023-04-09T06:35:22.739Z,20.45
2023-04-09T06:37:49.948Z,22.63
2023-04-09T06:40:17.179Z,20.63
2023-04-09T06:42:44.303Z,19.35
2023-04-09T06:45:11.640Z,21.67
2023-04-09T06:47:38.908Z,21.10
2023-04-09T06:50:06.362Z,21.30
2023-04-09T06:52:33.575Z,20.42
2023-04-09T06:55:00.973Z,21.02
2023-04-09T06:57:28.281Z,22.45
2023-04-09T06:59:57.561Z,24.70
2023-04-09T07:02:25.103Z,22.30
2023-04-09T07:04:52.655Z,23.45
2023-04-09T07:07:20.981Z,24.23
2023-04-09T07:09:48.280Z,23.42
2023-04-09T07:12:16.743Z,24.45
2023-04-09T07:14:44.015Z,23.98
2023-04-09T07:17:11.370Z,23.52
2023-04-09T07:19:38.655Z,22.02
2023-04-09T07:22:06.147Z,21.15
2023-04-09T07:24:33.692Z,23.60
2023-04-09T07:27:04.417Z,21.33
2023-04-09T07:29:31.587Z,20.98
2023-04-09T07:32:01.324Z,18.98
2023-04-09T07:34:28.652Z,18.40
2023-04-09T07:36:58.747Z,26.00
2023-04-09T07:39:27.145Z,20.02
2023-04-09T07:41:54.969Z,18.58
2023-04-09T07:44:22.492Z,16.45
2023-04-09T07:46:49.912Z,16.00
2023-04-09T07:49:17.792Z,17.58
2023-04-09T07:51:45.453Z,34.92
2023-04-09T07:54:12.899Z,92.03
2023-04-09T07:56:40.571Z,16.65
2023-04-09T07:59:15.538Z,19.77
2023-04-09T08:01:43.504Z,20.65
2023-04-09T08:04:13.183Z,15.20
2023-04-09T08:06:41.777Z,23.33
2023-04-09T08:09:09.608Z,19.63
2023-04-09T08:11:37.541Z,24.02
2023-04-09T08:14:06.272Z,15.73
2023-04-09T08:16:33.745Z,22.52
2023-04-09T08:19:01.155Z,19.63
2023-04-09T08:21:29.289Z,15.32
2023-04-09T08:24:01.233Z,13.82
2023-04-09T08:26:28.751Z,15.02
2023-04-09T08:28:55.948Z,13.68
2023-04-09T08:31:23.162Z,15.18
2023-04-09T08:33:51.226Z,17.52
2023-04-09T08:36:18.499Z,16.58
2023-04-09T08:38:47.179Z,23.40
2023-04-09T08:41:18.851Z,16.08
2023-04-09T08:46:21.155Z,13.68
2023-04-09T08:48:56.027Z,13.15
2023-04-09T08:51:24.736Z,13.10
2023-04-09T08:54:03.015Z,12.65
2023-04-09T08:56:31.526Z,11.85
2023-04-09T08:58:59.335Z,11.10
2023-04-09T09:01:30.753Z,10.90
2023-04-09T09:04:01.559Z,12.00
2023-04-09T09:06:32.018Z,13.07
2023-04-09T09:09:08.555Z,12.43
2023-04-09T09:11:36.878Z,11.70
2023-04-09T09:14:08.517Z,13.15
2023-04-09T09:16:40.207Z,11.82
2023-04-09T09:19:07.941Z,10.13
2023-04-09T09:21:36.778Z,10.52
2023-04-09T09:24:21.145Z,10.07
2023-04-09T09:26:51.404Z,9.90
2023-04-09T09:29:20.387Z,11.02
2023-04-09T09:31:49.667Z,10.07
2023-04-09T09:34:17.887Z,11.35
2023-04-09T09:36:46.754Z,18.33
2023-04-09T09:39:14.712Z,10.77
2023-04-09T09:41:42.300Z,9.00
2023-04-09T09:44:10.444Z,7.95
2023-04-09T09:46:38.807Z,10.85
2023-04-09T09:49:06.879Z,8.00
2023-04-09T09:51:35.055Z,8.05
2023-04-09T09:54:03.080Z,7.55
2023-04-09T09:56:37.425Z,8.60
2023-04-09T09:59:08.082Z,17.17
2023-04-09T10:01:36.916Z,10.55
2023-04-09T10:04:06.581Z,7.88
2023-04-09T10:06:34.837Z,8.88
2023-04-09T10:09:07.551Z,8.30
2023-04-09T10:11:36.554Z,7.70
2023-04-09T10:14:06.303Z,12.40
2023-04-09T10:16:33.564Z,6.82
2023-04-09T10:19:02.145Z,6.75
2023-04-09T10:21:48.744Z,6.90
2023-04-09T10:24:16.921Z,14.27
2023-04-09T10:26:47.899Z,10.50
2023-04-09T10:29:16.006Z,8.98
2023-04-09T10:31:52.204Z,10.75
2023-04-09T10:34:25.086Z,10.07
2023-04-09T10:36:53.591Z,7.75
2023-04-09T10:39:21.105Z,7.82
2023-04-09T10:41:49.761Z,9.50
2023-04-09T10:44:23.647Z,41.30
2023-04-09T10:46:51.804Z,18.40
2023-04-09T10:49:21.657Z,21.67
2023-04-09T10:51:49.936Z,10.45
2023-04-09T10:54:35.994Z,16.77
2023-04-09T10:57:09.764Z,27.85
2023-04-09T10:59:38.061Z,9.95
2023-04-09T11:02:08.321Z,9.82
2023-04-09T11:04:54.859Z,18.20
2023-04-09T11:07:24.680Z,9.70
2023-04-09T11:09:51.842Z,9.73
2023-04-09T11:12:19.387Z,9.35
2023-04-09T11:14:46.759Z,10.63
2023-04-09T11:17:14.263Z,11.27
2023-04-09T11:19:41.641Z,12.05
2023-04-09T11:22:11.665Z,10.27
2023-04-09T11:24:48.942Z,10.38
2023-04-09T11:30:02.393Z,9.75
2023-04-09T11:35:22.219Z,9.65
2023-04-09T11:37:53.623Z,9.65
2023-04-09T11:40:26.630Z,9.75
2023-04-09T11:42:58.413Z,9.63
2023-04-09T11:48:31.111Z,8.02
2023-04-09T11:51:00.146Z,10.02
2023-04-09T11:53:34.251Z,7.93
2023-04-09T11:56:02.999Z,7.50
2023-04-09T12:01:22.283Z,6.60
2023-04-09T12:04:18.298Z,6.15
2023-04-09T12:06:48.264Z,6.80
2023-04-09T12:09:18.015Z,7.40
2023-04-09T12:11:47.478Z,7.30
2023-04-09T12:14:18.862Z,7.10
2023-04-09T12:16:46.758Z,7.30
2023-04-09T12:19:14.600Z,6.75
2023-04-09T12:22:01.065Z,7.07
2023-04-09T12:24:28.907Z,6.65
2023-04-09T12:26:57.180Z,7.95
2023-04-09T12:29:25.922Z,8.60
2023-04-09T12:31:54.058Z,7.57
2023-04-09T12:34:21.373Z,6.93
2023-04-09T12:36:48.584Z,7.43
2023-04-09T12:39:16.004Z,7.43
2023-04-09T12:41:43.331Z,6.88
2023-04-09T12:44:10.464Z,6.25
2023-04-09T12:46:37.966Z,7.70
2023-04-09T12:49:06.104Z,6.93
2023-04-09T12:51:33.314Z,7.38
2023-04-09T12:54:00.477Z,7.80
2023-04-09T12:56:29.739Z,7.03
2023-04-09T12:58:57.051Z,7.10
2023-04-09T13:01:24.251Z,7.43
2023-04-09T13:03:51.670Z,7.70
2023-04-09T13:06:19.192Z,7.85
2023-04-09T13:08:46.623Z,7.13
2023-04-09T13:11:13.805Z,7.82
2023-04-09T13:13:42.523Z,7.18
2023-04-09T13:16:09.827Z,7.63
2023-04-09T13:18:37.517Z,6.90
2023-04-09T13:21:04.685Z,7.57
2023-04-09T13:23:31.930Z,7.28
2023-04-09T13:26:00.370Z,7.55
2023-04-09T13:28:27.644Z,6.80
2023-04-09T13:30:54.809Z,6.95
2023-04-09T13:33:22.021Z,7.07
2023-04-09T13:35:49.154Z,6.78
2023-04-09T13:38:16.290Z,6.28
2023-04-09T13:40:43.522Z,6.90
2023-04-09T13:43:10.927Z,6.53
2023-04-09T13:45:38.086Z,8.07
2023-04-09T13:48:06.077Z,6.07
2023-04-09T13:50:33.500Z,6.40
2023-04-09T13:53:03.204Z,5.88
2023-04-09T13:57:58.165Z,6.55
2023-04-09T14:00:25.295Z,5.47
2023-04-09T14:02:52.532Z,6.78
2023-04-09T14:05:19.787Z,5.30
2023-04-09T14:07:46.960Z,5.18
2023-04-09T14:10:14.198Z,5.72
2023-04-09T14:12:41.478Z,5.57
2023-04-09T14:15:10.134Z,6.38
2023-04-09T14:17:37.370Z,6.45
2023-04-09T14:20:04.683Z,6.50
2023-04-09T14:22:31.958Z,5.40
2023-04-09T14:24:59.421Z,6.28
2023-04-09T14:27:26.584Z,5.30
2023-04-09T14:29:54.040Z,5.40
2023-04-09T14:32:21.224Z,5.20
2023-04-09T14:34:48.310Z,6.22
2023-04-09T14:37:15.433Z,5.65
2023-04-09T14:39:42.723Z,5.57
2023-04-09T14:42:09.883Z,6.22
2023-04-09T14:44:37.031Z,5.93
2023-04-09T14:47:04.363Z,5.95
2023-04-09T14:49:31.677Z,6.03
2023-04-09T14:51:59.375Z,6.18
2023-04-09T14:54:27.178Z,5.75
2023-04-09T14:56:54.402Z,5.80
2023-04-09T14:59:21.679Z,6.03
2023-04-09T15:01:48.833Z,6.25
2023-04-09T15:04:16.091Z,5.63
2023-04-09T15:06:43.370Z,5.90
2023-04-09T15:09:10.481Z,6.10
2023-04-09T15:11:37.789Z,5.65
2023-04-09T15:14:04.910Z,5.45
2023-04-09T15:16:33.410Z,6.25
2023-04-09T15:19:02.624Z,6.00
2023-04-09T15:21:29.839Z,5.75
2023-04-09T15:23:58.852Z,5.85
2023-04-09T15:26:27.536Z,6.13
2023-04-09T15:29:04.999Z,5.65
2023-04-09T15:31:33.057Z,6.63
2023-04-09T15:34:02.297Z,6.10
2023-04-09T15:36:31.153Z,5.97
2023-04-09T15:38:58.493Z,5.75
2023-04-09T15:41:27.387Z,5.50
2023-04-09T15:43:54.999Z,4.75
2023-04-09T15:46:22.749Z,5.90
2023-04-09T15:48:50.665Z,6.07
2023-04-09T15:51:18.754Z,5.72
2023-04-09T15:53:46.196Z,6.00
2023-04-09T15:56:19.041Z,5.70
2023-04-09T15:58:46.632Z,5.60
2023-04-09T16:01:14.311Z,6.35
2023-04-09T16:03:41.958Z,6.05
2023-04-09T16:06:11.600Z,5.82
2023-04-09T16:08:39.823Z,5.97
2023-04-09T16:11:08.326Z,6.30
2023-04-09T16:13:35.784Z,7.45
2023-04-09T16:16:04.866Z,6.18
2023-04-09T16:18:32.566Z,7.00
2023-04-09T16:21:00.427Z,6.57
2023-04-09T16:23:30.427Z,7.10
2023-04-09T16:25:58.165Z,6.65
2023-04-09T16:28:26.611Z,7.47
2023-04-09T16:30:54.070Z,14.45
2023-04-09T16:33:21.407Z,9.55
2023-04-09T16:35:49.550Z,20.33
2023-04-09T16:38:17.688Z,20.67
2023-04-09T16:40:45.097Z,9.75
2023-04-09T16:43:13.043Z,8.23
2023-04-09T16:45:41.560Z,10.82
2023-04-09T16:48:12.734Z,8.52
2023-04-09T16:50:41.166Z,9.02
2023-04-09T16:53:08.811Z,33.00
2023-04-09T16:55:36.210Z,9.18
2023-04-09T16:58:05.358Z,7.50
2023-04-09T17:00:33.407Z,82.13
2023-04-09T17:03:02.101Z,103.07
2023-04-09T17:05:30.239Z,61.53
2023-04-09T17:07:59.114Z,200.80
2023-04-09T17:10:28.566Z,40.33
2023-04-09T17:12:55.965Z,28.90
2023-04-09T17:15:26.878Z,10.80
2023-04-09T17:17:54.738Z,11.95
2023-04-09T17:20:22.808Z,6.90
2023-04-09T17:22:50.285Z,7.03
2023-04-09T17:25:21.488Z,7.35
2023-04-09T17:27:49.545Z,9.45
2023-04-09T17:30:17.027Z,6.93
2023-04-09T17:32:44.850Z,8.35
2023-04-09T17:35:12.302Z,8.45
2023-04-09T17:37:40.176Z,9.45
2023-04-09T17:40:07.972Z,8.75
2023-04-09T17:42:35.509Z,7.40
2023-04-09T17:45:04.707Z,10.90
2023-04-09T17:47:32.114Z,7.05
2023-04-09T17:49:59.777Z,7.50
2023-04-09T17:52:27.137Z,7.45
2023-04-09T17:54:54.491Z,8.98
2023-04-09T17:57:31.823Z,11.50
2023-04-09T17:59:59.076Z,9.05
2023-04-09T18:02:26.661Z,8.20
2023-04-09T18:04:54.311Z,12.45
2023-04-09T18:07:21.934Z,10.18
2023-04-09T18:09:51.248Z,12.60
2023-04-09T18:12:20.062Z,11.93
2023-04-09T18:14:51.179Z,13.00
2023-04-09T18:17:20.307Z,12.27
2023-04-09T18:19:49.329Z,10.57
2023-04-09T18:22:22.395Z,11.52
2023-04-09T18:24:49.921Z,14.73
2023-04-09T18:27:17.873Z,14.80
2023-04-09T18:29:46.754Z,18.92
2023-04-09T18:32:14.219Z,12.93
2023-04-09T18:34:44.304Z,13.32
2023-04-09T18:37:12.349Z,9.93
2023-04-09T18:39:39.790Z,11.60
2023-04-09T18:42:07.881Z,11.52
2023-04-09T18:44:37.608Z,11.98
2023-04-09T18:47:06.007Z,18.95
2023-04-09T18:49:33.880Z,25.25
2023-04-09T18:52:01.565Z,19.55
2023-04-09T18:54:29.021Z,17.75
2023-04-09T18:56:57.573Z,18.08
2023-04-09T18:59:24.840Z,23.52
2023-04-09T19:01:52.587Z,21.70
2023-04-09T19:04:20.163Z,24.00
2023-04-09T19:06:49.628Z,19.83
2023-04-09T19:09:19.172Z,21.00
2023-04-09T19:11:46.708Z,22.50
2023-04-09T19:14:14.413Z,22.42
2023-04-09T19:16:41.870Z,28.45
2023-04-09T19:19:12.023Z,25.80
2023-04-09T19:21:42.443Z,24.30
2023-04-09T19:24:09.737Z,22.17
2023-04-09T19:26:37.475Z,21.42
2023-04-09T19:29:05.446Z,22.45
2023-04-09T19:31:33.180Z,18.92
2023-04-09T19:34:01.174Z,23.50
2023-04-09T19:36:28.566Z,25.63
2023-04-09T19:38:56.009Z,21.13
2023-04-09T19:41:23.375Z,24.98
2023-04-09T19:43:50.813Z,25.00
2023-04-09T19:46:18.297Z,25.65
2023-04-09T19:48:45.595Z,25.40
2023-04-09T19:51:20.087Z,27.92
2023-04-09T19:53:49.292Z,27.60
2023-04-09T19:56:16.810Z,28.15
2023-04-09T19:58:45.014Z,26.40
2023-04-09T20:01:13.100Z,29.50
2023-04-09T20:03:42.855Z,33.50
2023-04-09T20:06:10.991Z,39.55
2023-04-09T20:08:38.490Z,36.88
2023-04-09T20:11:06.975Z,46.22
2023-04-09T20:13:34.384Z,40.10
2023-04-09T20:16:01.794Z,40.97
2023-04-09T20:18:29.164Z,41.78
2023-04-09T20:20:57.290Z,40.20
2023-04-09T20:23:24.863Z,39.30
2023-04-09T20:25:55.465Z,37.65
2023-04-09T20:28:23.425Z,44.05
2023-04-09T20:31:00.033Z,42.33
2023-04-09T20:33:27.414Z,42.92
2023-04-09T20:36:03.120Z,40.33
2023-04-09T20:38:31.287Z,38.97
2023-04-09T20:40:58.527Z,43.17
2023-04-09T20:46:07.146Z,33.78
2023-04-09T20:48:34.540Z,36.13
2023-04-09T20:51:02.836Z,38.85
2023-04-09T20:53:37.900Z,30.15
2023-04-09T20:56:06.152Z,30.83
2023-04-09T20:58:33.632Z,28.23
2023-04-09T21:01:05.365Z,29.00
2023-04-09T21:03:33.153Z,27.98
2023-04-09T21:06:01.217Z,27.02
2023-04-09T21:08:29.205Z,28.00
2023-04-09T21:10:56.868Z,27.63
2023-04-09T21:13:24.189Z,28.20
2023-04-09T21:15:51.661Z,28.50
2023-04-09T21:18:18.833Z,24.80
2023-04-09T21:20:49.781Z,27.67
2023-04-09T21:23:17.435Z,23.90
2023-04-09T21:25:44.645Z,24.65
2023-04-09T21:28:12.097Z,28.65
2023-04-09T21:30:39.367Z,25.30
2023-04-09T21:33:07.759Z,24.35
2023-04-09T21:35:36.079Z,28.48
2023-04-09T21:38:04.003Z,23.98
2023-04-09T21:40:31.954Z,24.15
2023-04-09T21:42:59.295Z,22.63
2023-04-09T21:45:26.543Z,27.88
2023-04-09T21:47:53.738Z,25.67
2023-04-09T21:50:21.078Z,23.75
2023-04-09T21:52:48.281Z,25.70
2023-04-09T21:55:15.444Z,24.85
2023-04-09T21:57:42.704Z,22.52
2023-04-09T22:00:11.099Z,23.67
2023-04-09T22:02:42.045Z,29.15
2023-04-09T22:05:09.665Z,24.77
2023-04-09T22:07:37.607Z,22.10
2023-04-09T22:10:04.958Z,26.33
2023-04-09T22:12:32.196Z,27.52
2023-04-09T22:14:59.524Z,25.48
2023-04-09T22:17:26.862Z,23.42
2023-04-09T22:19:56.734Z,23.27
2023-04-09T22:22:23.961Z,20.98
2023-04-09T22:24:51.676Z,24.33
2023-04-09T22:27:18.829Z,22.98
2023-04-09T22:29:46.310Z,23.70
2023-04-09T22:32:13.786Z,22.83
2023-04-09T22:34:41.140Z,27.67
2023-04-09T22:37:08.572Z,24.88
2023-04-09T22:39:35.821Z,24.50
2023-04-09T22:42:03.841Z,25.35
2023-04-09T22:44:31.138Z,26.60
2023-04-09T22:46:58.498Z,26.75
2023-04-09T22:49:25.985Z,26.70
2023-04-09T22:51:53.517Z,29.08
2023-04-09T22:54:20.689Z,25.23
2023-04-09T22:56:48.788Z,28.88
2023-04-09T22:59:16.488Z,28.38
2023-04-09T23:01:43.858Z,30.92
2023-04-09T23:04:11.913Z,31.52
2023-04-09T23:06:39.082Z,31.95
2023-04-09T23:09:06.376Z,36.88
2023-04-09T23:11:33.506Z,28.33
2023-04-09T23:14:00.696Z,32.67
2023-04-09T23:16:27.985Z,31.30
2023-04-09T23:18:55.340Z,31.30
2023-04-09T23:21:22.879Z,28.73
2023-04-09T23:23:50.083Z,28.67
2023-04-09T23:26:17.303Z,28.63
2023-04-09T23:28:44.480Z,32.00
2023-04-09T23:31:11.662Z,32.90
2023-04-09T23:33:38.889Z,31.38
2023-04-09T23:36:06.665Z,28.77
2023-04-09T23:38:33.954Z,28.50
2023-04-09T23:41:01.513Z,28.60
2023-04-09T23:43:28.870Z,23.77
2023-04-09T23:45:56.092Z,26.70
2023-04-09T23:48:23.317Z,24.58
2023-04-09T23:50:51.965Z,26.48
2023-04-09T23:53:19.100Z,29.33
2023-04-09T23:55:47.849Z,30.73
2023-04-09T23:58:15.002Z,29.50
